sensor_id;sensor_type;location;lat;lon;timestamp;pressure;altitude;pressure_sealevel;temperature;humidity
19600;BME280;9947;57.722;12.012;2022-12-05T00:02:06;102648.25;;;0.12;100.00
19600;BME280;9947;57.722;12.012;2022-12-05T00:04:32;102637.63;;;-0.01;100.00
19600;BME280;9947;57.722;12.012;2022-12-05T00:07:01;102642.09;;;0.01;100.00
19600;BME280;9947;57.722;12.012;2022-12-05T00:09:28;102635.91;;;-0.08;100.00
19600;BME280;9947;57.722;12.012;2022-12-05T00:11:55;102633.28;;;-0.18;100.00
19600;BME280;9947;57.722;12.012;2022-12-05T00:14:22;102627.06;;;-0.19;100.00
19600;BME280;9947;57.722;12.012;2022-12-05T00:16:48;102627.97;;;-0.18;100.00
19600;BME280;9947;57.722;12.012;2022-12-05T00:19:15;102632.38;;;-0.14;100.00
19600;BME280;9947;57.722;12.012;2022-12-05T00:21:42;102638.56;;;-0.14;100.00
19600;BME280;9947;57.722;12.012;2022-12-05T00:24:13;102638.56;;;-0.15;100.00
19600;BME280;9947;57.722;12.012;2022-12-05T00:26:41;102639.47;;;-0.19;100.00
19600;BME280;9947;57.722;12.012;2022-12-05T00:29:08;102634.13;;;-0.09;100.00
19600;BME280;9947;57.722;12.012;2022-12-05T00:31:35;102640.31;;;-0.05;100.00
19600;BME280;9947;57.722;12.012;2022-12-05T00:34:03;102624.38;;;-0.10;100.00
19600;BME280;9947;57.722;12.012;2022-12-05T00:36:31;102632.34;;;0.01;100.00
19600;BME280;9947;57.722;12.012;2022-12-05T00:38:59;102630.56;;;0.03;100.00
19600;BME280;9947;57.722;12.012;2022-12-05T00:41:28;102622.56;;;0.08;100.00
19600;BME280;9947;57.722;12.012;2022-12-05T00:43:57;102627.91;;;0.02;100.00
19600;BME280;9947;57.722;12.012;2022-12-05T00:46:27;102626.16;;;0.01;100.00
19600;BME280;9947;57.722;12.012;2022-12-05T00:48:55;102621.72;;;0.01;100.00
19600;BME280;9947;57.722;12.012;2022-12-05T00:51:23;102620.78;;;0.11;100.00
19600;BME280;9947;57.722;12.012;2022-12-05T00:53:51;102610.16;;;0.05;100.00
19600;BME280;9947;57.722;12.012;2022-12-05T00:56:20;102607.50;;;0.07;100.00
19600;BME280;9947;57.722;12.012;2022-12-05T00:58:49;102604.88;;;0.02;100.00
19600;BME280;9947;57.722;12.012;2022-12-05T01:01:19;102607.50;;;-0.01;100.00
19600;BME280;9947;57.722;12.012;2022-12-05T01:03:48;102603.09;;;-0.02;100.00
19600;BME280;9947;57.722;12.012;2022-12-05T01:06:16;102611.06;;;-0.02;100.00
19600;BME280;9947;57.722;12.012;2022-12-05T01:08:43;102611.06;;;0.01;100.00
19600;BME280;9947;57.722;12.012;2022-12-05T01:11:13;102601.31;;;0.06;100.00
19600;BME280;9947;57.722;12.012;2022-12-05T01:13:58;102605.75;;;0.06;100.00
19600;BME280;9947;57.722;12.012;2022-12-05T01:16:27;102606.59;;;0.09;100.00
19600;BME280;9947;57.722;12.012;2022-12-05T01:18:54;102604.84;;;0.10;100.00
19600;BME280;9947;57.722;12.012;2022-12-05T01:21:21;102595.97;;;0.08;100.00
19600;BME280;9947;57.722;12.012;2022-12-05T01:23:48;102596.88;;;0.04;100.00
19600;BME280;9947;57.722;12.012;2022-12-05T01:26:17;102595.94;;;0.12;100.00
19600;BME280;9947;57.722;12.012;2022-12-05T01:28:45;102595.09;;;0.07;100.00
19600;BME280;9947;57.722;12.012;2022-12-05T01:31:17;102588.91;;;-0.01;100.00
19600;BME280;9947;57.722;12.012;2022-12-05T01:33:46;102580.94;;;0.01;100.00
19600;BME280;9947;57.722;12.012;2022-12-05T01:36:14;102589.78;;;-0.02;100.00
19600;BME280;9947;57.722;12.012;2022-12-05T01:38:42;102596.00;;;-0.05;100.00
19600;BME280;9947;57.722;12.012;2022-12-05T01:41:12;102587.13;;;-0.01;100.00
19600;BME280;9947;57.722;12.012;2022-12-05T01:43:56;102596.88;;;-0.03;100.00
19600;BME280;9947;57.722;12.012;2022-12-05T01:46:26;102586.25;;;-0.07;100.00
19600;BME280;9947;57.722;12.012;2022-12-05T01:48:57;102584.47;;;-0.04;100.00
19600;BME280;9947;57.722;12.012;2022-12-05T01:51:27;102596.00;;;-0.06;100.00
19600;BME280;9947;57.722;12.012;2022-12-05T01:53:53;102588.91;;;-0.03;100.00
19600;BME280;9947;57.722;12.012;2022-12-05T01:56:20;102581.81;;;-0.02;100.00
19600;BME280;9947;57.722;12.012;2022-12-05T01:58:48;102589.78;;;-0.04;100.00
19600;BME280;9947;57.722;12.012;2022-12-05T02:01:16;102580.06;;;-0.09;100.00
19600;BME280;9947;57.722;12.012;2022-12-05T02:03:47;102570.34;;;-0.13;100.00
19600;BME280;9947;57.722;12.012;2022-12-05T02:06:15;102580.97;;;-0.09;100.00
19600;BME280;9947;57.722;12.012;2022-12-05T02:08:43;102578.31;;;-0.12;100.00
19600;BME280;9947;57.722;12.012;2022-12-05T02:11:10;102576.53;;;-0.08;100.00
19600;BME280;9947;57.722;12.012;2022-12-05T02:14:06;102575.66;;;-0.10;100.00
19600;BME280;9947;57.722;12.012;2022-12-05T02:16:45;102571.25;;;-0.16;100.00
19600;BME280;9947;57.722;12.012;2022-12-05T02:19:30;102576.56;;;-0.19;100.00
19600;BME280;9947;57.722;12.012;2022-12-05T02:22:17;102573.88;;;-0.13;100.00
19600;BME280;9947;57.722;12.012;2022-12-05T02:24:54;102573.00;;;-0.15;100.00
19600;BME280;9947;57.722;12.012;2022-12-05T02:27:40;102574.78;;;-0.12;100.00
19600;BME280;9947;57.722;12.012;2022-12-05T02:30:13;102573.00;;;-0.12;100.00
19600;BME280;9947;57.722;12.012;2022-12-05T02:32:50;102566.81;;;-0.17;100.00
19600;BME280;9947;57.722;12.012;2022-12-05T02:35:29;102565.91;;;-0.14;100.00
19600;BME280;9947;57.722;12.012;2022-12-05T02:38:06;102559.72;;;-0.16;100.00
19600;BME280;9947;57.722;12.012;2022-12-05T02:40:43;102565.88;;;-0.07;100.00
19600;BME280;9947;57.722;12.012;2022-12-05T02:43:15;102567.69;;;-0.15;100.00
19600;BME280;9947;57.722;12.012;2022-12-05T02:45:47;102559.69;;;-0.12;100.00
19600;BME280;9947;57.722;12.012;2022-12-05T02:48:15;102563.25;;;-0.11;100.00
19600;BME280;9947;57.722;12.012;2022-12-05T02:50:46;102552.66;;;-0.19;100.00
19600;BME280;9947;57.722;12.012;2022-12-05T02:53:16;102557.00;;;-0.06;100.00
19600;BME280;9947;57.722;12.012;2022-12-05T02:55:45;102551.75;;;-0.15;100.00
19600;BME280;9947;57.722;12.012;2022-12-05T02:58:16;102550.84;;;-0.12;100.00
19600;BME280;9947;57.722;12.012;2022-12-05T03:00:48;102557.00;;;-0.04;100.00
19600;BME280;9947;57.722;12.012;2022-12-05T03:03:18;102557.94;;;-0.11;100.00
19600;BME280;9947;57.722;12.012;2022-12-05T03:05:55;102547.28;;;-0.10;100.00
19600;BME280;9947;57.722;12.012;2022-12-05T03:08:27;102540.19;;;-0.09;100.00
19600;BME280;9947;57.722;12.012;2022-12-05T03:10:56;102542.88;;;-0.14;100.00
19600;BME280;9947;57.722;12.012;2022-12-05T03:13:26;102534.03;;;-0.17;100.00
19600;BME280;9947;57.722;12.012;2022-12-05T03:15:59;102540.22;;;-0.14;100.00
19600;BME280;9947;57.722;12.012;2022-12-05T03:18:29;102541.13;;;-0.16;100.00
19600;BME280;9947;57.722;12.012;2022-12-05T03:21:00;102529.59;;;-0.15;100.00
19600;BME280;9947;57.722;12.012;2022-12-05T03:23:30;102532.25;;;-0.12;100.00
19600;BME280;9947;57.722;12.012;2022-12-05T03:26:05;102538.47;;;-0.16;100.00
19600;BME280;9947;57.722;12.012;2022-12-05T03:28:48;102518.97;;;-0.18;100.00
19600;BME280;9947;57.722;12.012;2022-12-05T03:31:30;102524.25;;;-0.12;100.00
19600;BME280;9947;57.722;12.012;2022-12-05T03:34:02;102523.38;;;-0.13;100.00
19600;BME280;9947;57.722;12.012;2022-12-05T03:36:37;102514.56;;;-0.21;100.00
19600;BME280;9947;57.722;12.012;2022-12-05T03:39:09;102526.03;;;-0.14;100.00
19600;BME280;9947;57.722;12.012;2022-12-05T03:41:41;102519.84;;;-0.12;100.00
19600;BME280;9947;57.722;12.012;2022-12-05T03:44:13;102525.16;;;-0.16;100.00
19600;BME280;9947;57.722;12.012;2022-12-05T03:46:47;102520.78;;;-0.25;100.00
19600;BME280;9947;57.722;12.012;2022-12-05T03:49:20;102525.16;;;-0.15;100.00
19600;BME280;9947;57.722;12.012;2022-12-05T03:51:52;102520.72;;;-0.14;100.00
19600;BME280;9947;57.722;12.012;2022-12-05T03:54:24;102515.44;;;-0.20;100.00
19600;BME280;9947;57.722;12.012;2022-12-05T03:56:55;102511.88;;;-0.15;100.00
19600;BME280;9947;57.722;12.012;2022-12-05T03:59:29;102512.78;;;-0.22;100.00
19600;BME280;9947;57.722;12.012;2022-12-05T04:02:02;102522.53;;;-0.19;100.00
19600;BME280;9947;57.722;12.012;2022-12-05T04:04:33;102522.56;;;-0.25;100.00
19600;BME280;9947;57.722;12.012;2022-12-05T04:07:04;102511.03;;;-0.31;100.00
19600;BME280;9947;57.722;12.012;2022-12-05T04:09:34;102520.78;;;-0.25;100.00
19600;BME280;9947;57.722;12.012;2022-12-05T04:12:08;102503.06;;;-0.23;100.00
19600;BME280;9947;57.722;12.012;2022-12-05T04:14:40;102503.03;;;-0.18;100.00
19600;BME280;9947;57.722;12.012;2022-12-05T04:17:15;102506.59;;;-0.32;100.00
19600;BME280;9947;57.722;12.012;2022-12-05T04:19:46;102503.94;;;-0.24;100.00
19600;BME280;9947;57.722;12.012;2022-12-05T04:22:32;102495.06;;;-0.21;100.00
19600;BME280;9947;57.722;12.012;2022-12-05T04:25:01;102496.84;;;-0.26;100.00
19600;BME280;9947;57.722;12.012;2022-12-05T04:27:51;102498.63;;;-0.21;100.00
19600;BME280;9947;57.722;12.012;2022-12-05T04:30:21;102480.94;;;-0.33;100.00
19600;BME280;9947;57.722;12.012;2022-12-05T04:32:58;102480.91;;;-0.29;100.00
19600;BME280;9947;57.722;12.012;2022-12-05T04:35:31;102480.91;;;-0.29;100.00
19600;BME280;9947;57.722;12.012;2022-12-05T04:38:03;102489.75;;;-0.29;100.00
19600;BME280;9947;57.722;12.012;2022-12-05T04:40:34;102474.72;;;-0.30;100.00
19600;BME280;9947;57.722;12.012;2022-12-05T04:43:03;102469.41;;;-0.35;100.00
19600;BME280;9947;57.722;12.012;2022-12-05T04:45:32;102468.53;;;-0.32;100.00
19600;BME280;9947;57.722;12.012;2022-12-05T04:48:06;102470.28;;;-0.33;100.00
19600;BME280;9947;57.722;12.012;2022-12-05T04:50:37;102468.53;;;-0.34;100.00
19600;BME280;9947;57.722;12.012;2022-12-05T04:53:05;102470.28;;;-0.33;100.00
19600;BME280;9947;57.722;12.012;2022-12-05T04:55:35;102474.72;;;-0.30;100.00
19600;BME280;9947;57.722;12.012;2022-12-05T04:58:10;102473.88;;;-0.37;100.00
19600;BME280;9947;57.722;12.012;2022-12-05T05:00:45;102474.72;;;-0.30;100.00
19600;BME280;9947;57.722;12.012;2022-12-05T05:03:20;102468.53;;;-0.34;100.00
19600;BME280;9947;57.722;12.012;2022-12-05T05:05:50;102466.75;;;-0.32;100.00
19600;BME280;9947;57.722;12.012;2022-12-05T05:08:20;102469.41;;;-0.35;100.00
19600;BME280;9947;57.722;12.012;2022-12-05T05:10:53;102468.56;;;-0.38;100.00
19600;BME280;9947;57.722;12.012;2022-12-05T05:13:22;102464.13;;;-0.38;100.00
19600;BME280;9947;57.722;12.012;2022-12-05T05:15:50;102461.44;;;-0.33;100.00
19600;BME280;9947;57.722;12.012;2022-12-05T05:18:18;102467.63;;;-0.29;100.00
19600;BME280;9947;57.722;12.012;2022-12-05T05:20:45;102473.81;;;-0.27;100.00
19600;BME280;9947;57.722;12.012;2022-12-05T05:23:12;102462.31;;;-0.29;100.00
19600;BME280;9947;57.722;12.012;2022-12-05T05:25:39;102472.94;;;-0.29;100.00
19600;BME280;9947;57.722;12.012;2022-12-05T05:28:05;102466.75;;;-0.33;100.00
19600;BME280;9947;57.722;12.012;2022-12-05T05:30:32;102462.31;;;-0.33;100.00
19600;BME280;9947;57.722;12.012;2022-12-05T05:32:59;102473.81;;;-0.29;100.00
19600;BME280;9947;57.722;12.012;2022-12-05T05:35:27;102464.97;;;-0.31;100.00
19600;BME280;9947;57.722;12.012;2022-12-05T05:37:54;102454.38;;;-0.36;100.00
19600;BME280;9947;57.722;12.012;2022-12-05T05:40:21;102456.09;;;-0.28;100.00
19600;BME280;9947;57.722;12.012;2022-12-05T05:42:48;102457.00;;;-0.33;100.00
19600;BME280;9947;57.722;12.012;2022-12-05T05:45:16;102452.56;;;-0.31;100.00
19600;BME280;9947;57.722;12.012;2022-12-05T05:47:43;102456.13;;;-0.33;100.00
19600;BME280;9947;57.722;12.012;2022-12-05T05:50:10;102444.63;;;-0.37;100.00
19600;BME280;9947;57.722;12.012;2022-12-05T05:52:39;102444.63;;;-0.34;100.00
19600;BME280;9947;57.722;12.012;2022-12-05T05:55:07;102437.50;;;-0.30;100.00
19600;BME280;9947;57.722;12.012;2022-12-05T05:57:34;102442.88;;;-0.39;100.00
19600;BME280;9947;57.722;12.012;2022-12-05T06:00:03;102438.44;;;-0.36;100.00
19600;BME280;9947;57.722;12.012;2022-12-05T06:02:31;102441.06;;;-0.34;100.00
19600;BME280;9947;57.722;12.012;2022-12-05T06:04:59;102442.81;;;-0.28;100.00
19600;BME280;9947;57.722;12.012;2022-12-05T06:07:26;102438.38;;;-0.29;100.00
19600;BME280;9947;57.722;12.012;2022-12-05T06:09:55;102441.09;;;-0.37;100.00
19600;BME280;9947;57.722;12.012;2022-12-05T06:12:22;102441.94;;;-0.32;100.00
19600;BME280;9947;57.722;12.012;2022-12-05T06:14:49;102449.06;;;-0.36;100.00
19600;BME280;9947;57.722;12.012;2022-12-05T06:17:15;102431.34;;;-0.35;100.00
19600;BME280;9947;57.722;12.012;2022-12-05T06:19:44;102426.88;;;-0.30;100.00
19600;BME280;9947;57.722;12.012;2022-12-05T06:22:11;102424.25;;;-0.33;100.00
19600;BME280;9947;57.722;12.012;2022-12-05T06:24:38;102428.66;;;-0.24;100.00
19600;BME280;9947;57.722;12.012;2022-12-05T06:27:06;102435.72;;;-0.22;100.00
19600;BME280;9947;57.722;12.012;2022-12-05T06:29:33;102435.75;;;-0.31;100.00
19600;BME280;9947;57.722;12.012;2022-12-05T06:32:00;102426.88;;;-0.28;100.00
19600;BME280;9947;57.722;12.012;2022-12-05T06:34:28;102428.63;;;-0.27;100.00
19600;BME280;9947;57.722;12.012;2022-12-05T06:36:57;102420.69;;;-0.26;100.00
19600;BME280;9947;57.722;12.012;2022-12-05T06:39:23;102430.41;;;-0.26;100.00
19600;BME280;9947;57.722;12.012;2022-12-05T06:41:50;102432.19;;;-0.28;100.00
19600;BME280;9947;57.722;12.012;2022-12-05T06:44:19;102430.44;;;-0.31;100.00
19600;BME280;9947;57.722;12.012;2022-12-05T06:46:46;102437.50;;;-0.24;100.00
19600;BME280;9947;57.722;12.012;2022-12-05T06:49:13;102430.41;;;-0.29;100.00
19600;BME280;9947;57.722;12.012;2022-12-05T06:51:40;102433.97;;;-0.24;100.00
19600;BME280;9947;57.722;12.012;2022-12-05T06:54:07;102430.41;;;-0.20;100.00
19600;BME280;9947;57.722;12.012;2022-12-05T06:56:34;102430.41;;;-0.23;100.00
19600;BME280;9947;57.722;12.012;2022-12-05T06:59:00;102426.88;;;-0.22;100.00
19600;BME280;9947;57.722;12.012;2022-12-05T07:01:31;102428.66;;;-0.24;100.00
19600;BME280;9947;57.722;12.012;2022-12-05T07:04:04;102438.38;;;-0.20;100.00
19600;BME280;9947;57.722;12.012;2022-12-05T07:06:32;102440.13;;;-0.19;100.00
19600;BME280;9947;57.722;12.012;2022-12-05T07:08:59;102433.94;;;-0.21;100.00
19600;BME280;9947;57.722;12.012;2022-12-05T07:11:30;102434.78;;;-0.13;100.00
19600;BME280;9947;57.722;12.012;2022-12-05T07:13:57;102436.59;;;-0.18;100.00
19600;BME280;9947;57.722;12.012;2022-12-05T07:16:24;102437.41;;;-0.10;100.00
19600;BME280;9947;57.722;12.012;2022-12-05T07:18:52;102435.66;;;-0.13;100.00
19600;BME280;9947;57.722;12.012;2022-12-05T07:21:19;102431.22;;;-0.11;100.00
19600;BME280;9947;57.722;12.012;2022-12-05T07:23:47;102433.91;;;-0.17;100.00
19600;BME280;9947;57.722;12.012;2022-12-05T07:26:17;102439.22;;;-0.15;100.00
19600;BME280;9947;57.722;12.012;2022-12-05T07:28:45;102440.09;;;-0.15;100.00
19600;BME280;9947;57.722;12.012;2022-12-05T07:31:13;102441.84;;;-0.09;100.00
19600;BME280;9947;57.722;12.012;2022-12-05T07:33:40;102438.25;;;-0.04;100.00
19600;BME280;9947;57.722;12.012;2022-12-05T07:36:11;102428.53;;;-0.06;100.00
19600;BME280;9947;57.722;12.012;2022-12-05T07:38:38;102435.66;;;-0.13;100.00
19600;BME280;9947;57.722;12.012;2022-12-05T07:41:06;102433.84;;;-0.08;100.00
19600;BME280;9947;57.722;12.012;2022-12-05T07:43:33;102437.38;;;-0.06;100.00
19600;BME280;9947;57.722;12.012;2022-12-05T07:46:08;102442.69;;;-0.04;100.00
19600;BME280;9947;57.722;12.012;2022-12-05T07:48:36;102434.72;;;-0.07;100.00
19600;BME280;9947;57.722;12.012;2022-12-05T07:51:05;102441.84;;;-0.12;100.00
19600;BME280;9947;57.722;12.012;2022-12-05T07:53:33;102441.84;;;-0.09;100.00
19600;BME280;9947;57.722;12.012;2022-12-05T07:56:02;102436.50;;;-0.06;100.00
19600;BME280;9947;57.722;12.012;2022-12-05T07:58:31;102428.56;;;-0.11;100.00
19600;BME280;9947;57.722;12.012;2022-12-05T08:01:05;102430.31;;;-0.08;100.00
19600;BME280;9947;57.722;12.012;2022-12-05T08:03:31;102424.19;;;-0.21;100.00
19600;BME280;9947;57.722;12.012;2022-12-05T08:06:00;102414.47;;;-0.23;100.00
19600;BME280;9947;57.722;12.012;2022-12-05T08:08:27;102416.22;;;-0.19;100.00
19600;BME280;9947;57.722;12.012;2022-12-05T08:10:56;102423.34;;;-0.24;100.00
19600;BME280;9947;57.722;12.012;2022-12-05T08:13:22;102427.72;;;-0.19;100.00
19600;BME280;9947;57.722;12.012;2022-12-05T08:15:49;102419.75;;;-0.17;100.00
19600;BME280;9947;57.722;12.012;2022-12-05T08:18:16;102414.41;;;-0.14;100.00
19600;BME280;9947;57.722;12.012;2022-12-05T08:20:43;102405.56;;;-0.15;100.00
19600;BME280;9947;57.722;12.012;2022-12-05T08:23:09;102403.75;;;-0.10;100.00
19600;BME280;9947;57.722;12.012;2022-12-05T08:25:36;102407.31;;;-0.12;100.00
19600;BME280;9947;57.722;12.012;2022-12-05T08:28:05;102411.75;;;-0.14;100.00
19600;BME280;9947;57.722;12.012;2022-12-05T08:30:32;102406.41;;;-0.11;100.00
19600;BME280;9947;57.722;12.012;2022-12-05T08:32:59;102403.75;;;-0.11;100.00
19600;BME280;9947;57.722;12.012;2022-12-05T08:35:26;102409.03;;;-0.08;100.00
19600;BME280;9947;57.722;12.012;2022-12-05T08:37:52;102407.31;;;-0.12;100.00
19600;BME280;9947;57.722;12.012;2022-12-05T08:40:19;102404.66;;;-0.15;100.00
19600;BME280;9947;57.722;12.012;2022-12-05T08:42:46;102401.97;;;-0.09;100.00
19600;BME280;9947;57.722;12.012;2022-12-05T08:45:14;102399.28;;;0.00;100.00
19600;BME280;9947;57.722;12.012;2022-12-05T08:47:41;102393.06;;;0.01;100.00
19600;BME280;9947;57.722;12.012;2022-12-05T08:50:10;102393.03;;;-0.01;100.00
19600;BME280;9947;57.722;12.012;2022-12-05T08:52:37;102394.81;;;0.02;100.00
19600;BME280;9947;57.722;12.012;2022-12-05T08:55:04;102395.63;;;0.13;100.00
19600;BME280;9947;57.722;12.012;2022-12-05T08:57:31;102393.03;;;-0.01;100.00
19600;BME280;9947;57.722;12.012;2022-12-05T08:59:58;102402.81;;;-0.03;100.00
19600;BME280;9947;57.722;12.012;2022-12-05T09:02:26;102393.06;;;0.01;100.00
19600;BME280;9947;57.722;12.012;2022-12-05T09:04:53;102403.66;;;0.06;100.00
19600;BME280;9947;57.722;12.012;2022-12-05T09:07:20;102392.16;;;0.02;100.00
19600;BME280;9947;57.722;12.012;2022-12-05T09:09:47;102394.78;;;0.08;100.00
19600;BME280;9947;57.722;12.012;2022-12-05T09:12:13;102399.16;;;0.15;100.00
19600;BME280;9947;57.722;12.012;2022-12-05T09:14:40;102396.50;;;0.14;100.00
19600;BME280;9947;57.722;12.012;2022-12-05T09:17:07;102385.03;;;0.07;100.00
19600;BME280;9947;57.722;12.012;2022-12-05T09:19:35;102388.59;;;0.06;100.00
19600;BME280;9947;57.722;12.012;2022-12-05T09:22:03;102389.47;;;0.07;100.00
19600;BME280;9947;57.722;12.012;2022-12-05T09:24:30;102377.06;;;0.06;100.00
19600;BME280;9947;57.722;12.012;2022-12-05T09:26:57;102382.28;;;0.16;100.00
19600;BME280;9947;57.722;12.012;2022-12-05T09:29:24;102378.75;;;0.17;100.00
19600;BME280;9947;57.722;12.012;2022-12-05T09:31:53;102374.28;;;0.19;100.00
19600;BME280;9947;57.722;12.012;2022-12-05T09:34:20;102379.63;;;0.16;100.00
19600;BME280;9947;57.722;12.012;2022-12-05T09:36:50;102382.28;;;0.16;100.00
19600;BME280;9947;57.722;12.012;2022-12-05T09:39:17;102377.88;;;0.15;100.00
19600;BME280;9947;57.722;12.012;2022-12-05T09:42:06;102375.97;;;0.31;100.00
19600;BME280;9947;57.722;12.012;2022-12-05T09:47:47;102369.78;;;0.26;100.00
19600;BME280;9947;57.722;12.012;2022-12-05T09:50:19;102369.81;;;0.27;100.00
19600;BME280;9947;57.722;12.012;2022-12-05T09:53:00;102366.25;;;0.24;100.00
19600;BME280;9947;57.722;12.012;2022-12-05T09:55:35;102367.16;;;0.27;100.00
19600;BME280;9947;57.722;12.012;2022-12-05T09:58:16;102371.59;;;0.27;100.00
19600;BME280;9947;57.722;12.012;2022-12-05T10:00:45;102357.31;;;0.36;100.00
19600;BME280;9947;57.722;12.012;2022-12-05T10:03:21;102358.19;;;0.38;100.00
19600;BME280;9947;57.722;12.012;2022-12-05T10:05:55;102354.69;;;0.34;100.00
19600;BME280;9947;57.722;12.012;2022-12-05T10:08:32;102352.94;;;0.32;100.00
19600;BME280;9947;57.722;12.012;2022-12-05T10:11:08;102352.84;;;0.39;100.00
19600;BME280;9947;57.722;12.012;2022-12-05T10:13:44;102350.28;;;0.32;100.00
19600;BME280;9947;57.722;12.012;2022-12-05T10:16:18;102341.41;;;0.29;100.00
19600;BME280;9947;57.722;12.012;2022-12-05T10:18:57;102333.38;;;0.37;100.00
19600;BME280;9947;57.722;12.012;2022-12-05T10:21:30;102335.97;;;0.42;100.00
19600;BME280;9947;57.722;12.012;2022-12-05T10:24:03;102335.00;;;0.50;100.00
19600;BME280;9947;57.722;12.012;2022-12-05T10:26:33;102332.34;;;0.49;100.00
19600;BME280;9947;57.722;12.012;2022-12-05T10:29:13;102330.59;;;0.48;100.00
19600;BME280;9947;57.722;12.012;2022-12-05T10:31:47;102323.41;;;0.57;100.00
19600;BME280;9947;57.722;12.012;2022-12-05T10:34:20;102318.06;;;0.59;100.00
19600;BME280;9947;57.722;12.012;2022-12-05T10:36:54;102312.72;;;0.62;100.00
19600;BME280;9947;57.722;12.012;2022-12-05T10:39:24;102316.31;;;0.58;100.00
19600;BME280;9947;57.722;12.012;2022-12-05T10:41:51;102311.03;;;0.55;100.00
19600;BME280;9947;57.722;12.012;2022-12-05T10:44:18;102312.75;;;0.60;100.00
19600;BME280;9947;57.722;12.012;2022-12-05T10:46:45;102315.31;;;0.67;100.00
19600;BME280;9947;57.722;12.012;2022-12-05T10:49:12;102313.72;;;0.53;100.00
19600;BME280;9947;57.722;12.012;2022-12-05T10:51:39;102310.16;;;0.53;100.00
19600;BME280;9947;57.722;12.012;2022-12-05T10:54:16;102303.00;;;0.59;100.00
19600;BME280;9947;57.722;12.012;2022-12-05T10:56:45;102297.63;;;0.64;100.00
19600;BME280;9947;57.722;12.012;2022-12-05T10:59:16;102291.47;;;0.59;100.00
19600;BME280;9947;57.722;12.012;2022-12-05T11:01:45;102290.72;;;0.45;100.00
19600;BME280;9947;57.722;12.012;2022-12-05T11:04:22;102287.16;;;0.46;100.00
19600;BME280;9947;57.722;12.012;2022-12-05T11:06:57;102290.59;;;0.57;100.00
19600;BME280;9947;57.722;12.012;2022-12-05T11:09:26;102282.53;;;0.63;100.00
19600;BME280;9947;57.722;12.012;2022-12-05T11:12:06;102275.38;;;0.68;100.00
19600;BME280;9947;57.722;12.012;2022-12-05T11:14:52;102271.03;;;0.61;100.00
19600;BME280;9947;57.722;12.012;2022-12-05T11:17:23;102269.19;;;0.68;100.00
19600;BME280;9947;57.722;12.012;2022-12-05T11:19:51;102274.44;;;0.72;100.00
19600;BME280;9947;57.722;12.012;2022-12-05T11:22:18;102262.94;;;0.70;100.00
19600;BME280;9947;57.722;12.012;2022-12-05T11:24:46;102261.19;;;0.68;100.00
19600;BME280;9947;57.722;12.012;2022-12-05T11:27:26;102248.66;;;0.79;100.00
19600;BME280;9947;57.722;12.012;2022-12-05T11:30:00;102260.19;;;0.79;100.00
19600;BME280;9947;57.722;12.012;2022-12-05T11:32:29;102251.38;;;0.73;100.00
19600;BME280;9947;57.722;12.012;2022-12-05T11:35:03;102246.97;;;0.70;100.00
19600;BME280;9947;57.722;12.012;2022-12-05T11:37:36;102250.41;;;0.81;100.00
19600;BME280;9947;57.722;12.012;2022-12-05T11:40:13;102244.28;;;0.72;100.00
19600;BME280;9947;57.722;12.012;2022-12-05T11:42:50;102236.19;;;0.82;100.00
19600;BME280;9947;57.722;12.012;2022-12-05T11:45:38;102247.72;;;0.83;100.00
19600;BME280;9947;57.722;12.012;2022-12-05T11:51:22;102230.97;;;0.72;100.00
19600;BME280;9947;57.722;12.012;2022-12-05T11:54:19;102237.16;;;0.74;100.00
19600;BME280;9947;57.722;12.012;2022-12-05T11:56:53;102237.13;;;0.78;100.00
19600;BME280;9947;57.722;12.012;2022-12-05T11:59:37;102237.09;;;0.81;100.00
19600;BME280;9947;57.722;12.012;2022-12-05T12:02:15;102235.28;;;0.83;100.00
19600;BME280;9947;57.722;12.012;2022-12-05T12:04:51;102229.03;;;0.87;100.00
19600;BME280;9947;57.722;12.012;2022-12-05T12:07:42;102227.16;;;0.92;100.00
19600;BME280;9947;57.722;12.012;2022-12-05T12:10:22;102227.31;;;0.83;100.00
19600;BME280;9947;57.722;12.012;2022-12-05T12:13:03;102234.31;;;0.89;100.00
19600;BME280;9947;57.722;12.012;2022-12-05T12:15:51;102231.75;;;0.83;100.00
19600;BME280;9947;57.722;12.012;2022-12-05T12:18:35;102214.06;;;0.76;100.00
19600;BME280;9947;57.722;12.012;2022-12-05T12:21:15;102206.06;;;0.77;100.00
19600;BME280;9947;57.722;12.012;2022-12-05T12:23:53;102207.81;;;0.81;100.00
19600;BME280;9947;57.722;12.012;2022-12-05T12:26:31;102208.75;;;0.76;100.00
19600;BME280;9947;57.722;12.012;2022-12-05T12:29:09;102198.06;;;0.77;100.00
19600;BME280;9947;57.722;12.012;2022-12-05T12:31:53;102202.47;;;0.81;100.00
19600;BME280;9947;57.722;12.012;2022-12-05T12:34:32;102189.16;;;0.83;100.00
19600;BME280;9947;57.722;12.012;2022-12-05T12:37:12;102179.50;;;0.74;100.00
19600;BME280;9947;57.722;12.012;2022-12-05T12:39:44;102184.72;;;0.83;100.00
19600;BME280;9947;57.722;12.012;2022-12-05T12:42:22;102177.69;;;0.75;100.00
19600;BME280;9947;57.722;12.012;2022-12-05T12:47:59;102175.88;;;0.80;100.00
19600;BME280;9947;57.722;12.012;2022-12-05T12:50:30;102178.47;;;0.84;100.00
19600;BME280;9947;57.722;12.012;2022-12-05T12:56:08;102171.50;;;0.74;100.00
19600;BME280;9947;57.722;12.012;2022-12-05T12:58:45;102162.63;;;0.74;100.00
19600;BME280;9947;57.722;12.012;2022-12-05T13:01:23;102170.50;;;0.84;100.00
19600;BME280;9947;57.722;12.012;2022-12-05T13:03:55;102151.13;;;0.72;100.00
19600;BME280;9947;57.722;12.012;2022-12-05T13:06:28;102155.59;;;0.70;100.00
19600;BME280;9947;57.722;12.012;2022-12-05T13:09:01;102141.34;;;0.74;100.00
19600;BME280;9947;57.722;12.012;2022-12-05T13:11:35;102137.81;;;0.73;100.00
19600;BME280;9947;57.722;12.012;2022-12-05T13:14:03;102147.47;;;0.82;100.00
19600;BME280;9947;57.722;12.012;2022-12-05T13:16:38;102141.31;;;0.75;100.00